Time;durP1;ratioP1;P1;durP2;ratioP2;P2;SDS_P1;SDS_P2;PMS_P1;PMS_P2;Temp;Humidity;BMP_temperature;BMP_pressure;BME280_temperature;BME280_humidity;BME280_pressure;Samples;Min_cycle;Max_cycle;Signal;HPM_P1;HPM_P2
2022/05/15 00:00:38;;;;;;;6.63;1.75;;;;;;;22.75;45.13;101430.84;4971754;28;20420;-55
2022/05/15 00:03:06;;;;;;;5.90;1.90;;;;;;;22.47;46.09;101434.91;5001965;28;20061;-55
2022/05/15 00:05:32;;;;;;;8.57;2.35;;;;;;;22.10;46.13;101431.31;4990889;28;20030;-54
2022/05/15 00:07:58;;;;;;;6.63;2.20;;;;;;;21.85;46.56;101428.47;5005085;28;20036;-54
2022/05/15 00:10:24;;;;;;;5.28;1.88;;;;;;;;;;5011376;28;20030;-54
2022/05/15 00:12:50;;;;;;;5.90;2.42;;;;;;;21.93;46.51;101425.25;4999085;28;20042;-55
2022/05/15 00:15:17;;;;;;;5.40;2.28;;;;;;;22.23;46.81;101429.16;4985825;28;20057;-55
2022/05/15 00:17:43;;;;;;;7.38;2.05;;;;;;;21.68;47.57;101433.31;4987763;28;20033;-55
2022/05/15 00:20:09;;;;;;;10.00;2.17;;;;;;;22.04;46.98;101426.91;4991293;28;20053;-55
2022/05/15 00:22:36;;;;;;;9.35;1.90;;;;;;;21.73;47.07;101422.44;4972336;28;20035;-55
2022/05/15 00:25:04;;;;;;;8.07;2.28;;;;;;;21.79;49.07;101429.53;4975352;28;20454;-55
2022/05/15 00:27:30;;;;;;;7.53;2.28;;;;;;;22.04;47.33;101420.59;4991841;28;20026;-55
2022/05/15 00:29:56;;;;;;;8.10;2.33;;;;;;;21.90;47.02;101430.41;4991593;28;20048;-55
2022/05/15 00:32:22;;;;;;;13.23;2.45;;;;;;;21.37;48.13;101426.88;4982857;28;20033;-55
2022/05/15 00:34:49;;;;;;;8.60;2.00;;;;;;;21.21;48.68;101426.78;4989331;28;20054;-55
2022/05/15 00:37:15;;;;;;;6.78;2.35;;;;;;;21.43;48.85;101420.38;5012179;28;20069;-55
2022/05/15 00:39:41;;;;;;;8.68;2.53;;;;;;;21.06;48.50;101426.66;5000069;28;20081;-55
2022/05/15 00:42:11;;;;;;;5.93;2.45;;;;;;;20.35;49.76;101420.59;4993478;28;20058;-55
2022/05/15 00:44:37;;;;;;;8.68;2.35;;;;;;;20.41;50.08;101420.38;4981847;28;20023;-55
2022/05/15 00:47:04;;;;;;;9.90;2.92;;;;;;;20.30;50.73;101408.56;4976260;28;20030;-55
2022/05/15 00:49:32;;;;;;;8.43;2.40;;;;;;;20.25;51.32;101402.28;4978744;28;20030;-55
2022/05/15 00:52:08;;;;;;;6.70;2.72;;;;;;;20.06;50.67;101403.72;4995055;28;20102;-55
2022/05/15 00:54:40;;;;;;;8.73;2.65;;;;;;;20.23;51.04;101394.38;5014667;28;20026;-55
2022/05/15 00:57:09;;;;;;;10.85;3.30;;;;;;;20.03;51.23;101394.16;5014737;28;20030;-54
2022/05/15 01:00:01;;;;;;;8.93;2.80;;;;;;;20.25;50.77;101394.13;5009073;28;20546;-55
2022/05/15 01:02:32;;;;;;;7.82;3.28;;;;;;;19.87;51.53;101386.91;4983457;28;20046;-54
2022/05/15 01:04:58;;;;;;;10.77;2.85;;;;;;;20.21;51.34;101382.97;4994466;28;20030;-55
2022/05/15 01:07:25;;;;;;;7.20;2.72;;;;;;;19.99;51.38;101383.00;4995188;28;20030;-54
2022/05/15 01:09:52;;;;;;;7.72;2.92;;;;;;;20.11;50.43;101382.84;5011259;28;20034;-54
2022/05/15 01:12:18;;;;;;;8.38;2.72;;;;;;;20.01;50.93;101378.13;5014263;28;20041;-55
2022/05/15 01:14:46;;;;;;;11.15;3.00;;;;;;;19.63;51.46;101370.91;5014735;28;20034;-55
2022/05/15 01:17:13;;;;;;;10.55;3.00;;;;;;;19.75;51.83;101379.72;4999539;28;20050;-55
2022/05/15 01:19:42;;;;;;;11.27;3.00;;;;;;;19.86;51.92;101366.25;4993913;28;20030;-55
2022/05/15 01:22:14;;;;;;;8.80;3.03;;;;;;;20.16;51.12;101355.72;4992786;28;20121;-55
2022/05/15 01:24:42;;;;;;;9.32;2.63;;;;;;;19.95;50.95;101370.19;4994225;28;20494;-55
2022/05/15 01:27:12;;;;;;;9.43;2.85;;;;;;;19.98;50.92;101362.31;4994882;28;20038;-55
2022/05/15 01:29:46;;;;;;;8.48;2.00;;;;;;;20.16;50.97;101355.72;4994311;28;20540;-55
2022/05/15 01:32:13;;;;;;;11.90;2.67;;;;;;;20.04;50.23;101368.63;4994373;28;20034;-55
2022/05/15 01:34:41;;;;;;;8.60;2.67;;;;;;;19.72;51.52;101363.97;4994171;28;20046;-55
2022/05/15 01:37:08;;;;;;;8.27;3.08;;;;;;;20.04;51.11;101365.91;4983717;28;20027;-55
2022/05/15 01:39:35;;;;;;;7.47;2.80;;;;;;;19.96;51.40;101367.19;4974752;28;20030;-55
2022/05/15 01:42:03;;;;;;;9.20;3.33;;;;;;;20.25;50.72;101358.78;4991659;28;20552;-55
2022/05/15 01:44:31;;;;;;;12.07;3.08;;;;;;;20.36;50.18;101356.97;4984721;28;20038;-55
2022/05/15 01:46:57;;;;;;;11.70;2.58;;;;;;;20.07;50.82;101354.53;4980663;28;20550;-55
2022/05/15 01:49:23;;;;;;;12.70;3.47;;;;;;;20.45;50.45;101358.16;4976149;28;20038;-55
2022/05/15 01:51:49;;;;;;;11.48;3.20;;;;;;;20.65;50.10;101349.34;4990198;28;20026;-55
2022/05/15 01:54:16;;;;;;;14.45;3.03;;;;;;;20.76;49.12;101348.34;4994535;28;20034;-55
2022/05/15 01:56:43;;;;;;;9.05;2.38;;;;;;;20.45;49.87;101352.72;4994313;28;20037;-54
2022/05/15 01:59:10;;;;;;;9.20;2.97;;;;;;;20.68;49.89;101343.41;4994592;28;20023;-54
2022/05/15 02:01:37;;;;;;;10.65;2.80;;;;;;;20.64;49.72;101342.28;4987936;28;20526;-53
2022/05/15 02:04:04;;;;;;;12.93;2.90;;;;;;;20.92;48.69;101332.94;4994361;28;20510;-54
2022/05/15 02:06:30;;;;;;;16.27;3.55;;;;;;;21.09;48.33;101337.13;4994039;28;20030;-54
2022/05/15 02:08:57;;;;;;;13.73;2.88;;;;;;;21.23;47.48;101336.66;4993937;28;20030;-53
2022/05/15 02:11:23;;;;;;;8.25;2.47;;;;;;;21.15;48.18;101342.59;4993442;28;20027;-54
2022/05/15 02:13:49;;;;;;;11.80;3.13;;;;;;;21.34;47.96;101331.03;4994028;28;20050;-54
2022/05/15 02:16:16;;;;;;;7.97;2.72;;;;;;;20.72;49.01;101333.63;4992057;28;20054;-54
2022/05/15 02:18:42;;;;;;;11.82;2.78;;;;;;;21.50;47.72;101331.09;4973047;28;20047;-54
2022/05/15 02:21:09;;;;;;;12.68;3.28;;;;;;;21.94;46.46;101323.31;4978932;28;20023;-54
2022/05/15 02:23:35;;;;;;;9.95;2.60;;;;;;;21.56;47.08;101332.75;4989522;28;20152;-54
2022/05/15 02:26:01;;;;;;;11.07;3.03;;;;;;;21.71;46.70;101334.66;4993368;28;20490;-54
2022/05/15 02:28:27;;;;;;;15.52;3.33;;;;;;;21.36;47.70;101325.28;4993555;28;20077;-53
2022/05/15 02:30:54;;;;;;;13.38;3.50;;;;;;;21.08;48.51;101332.75;4993335;28;20105;-54
2022/05/15 02:33:20;;;;;;;13.50;3.58;;;;;;;20.69;49.07;101326.00;4998111;28;20131;-54
2022/05/15 02:35:47;;;;;;;14.50;3.20;;;;;;;21.07;48.29;101330.31;5002940;28;21218;-53
2022/05/15 02:38:13;;;;;;;12.02;3.40;;;;;;;20.89;49.47;101328.03;4978790;28;20065;-54
2022/05/15 02:40:39;;;;;;;11.88;3.33;;;;;;;20.44;50.53;101345.63;4992684;28;20027;-53
2022/05/15 02:43:05;;;;;;;12.52;3.78;;;;;;;19.72;52.25;101338.69;4993381;28;20168;-53
2022/05/15 02:45:32;;;;;;;12.70;2.88;;;;;;;19.43;52.98;101344.31;4993446;28;20107;-53
2022/05/15 02:47:58;;;;;;;13.25;3.30;;;;;;;18.71;54.44;101342.50;4993176;28;20138;-54
2022/05/15 02:53:09;;;;;;;18.42;4.22;;;;;;;18.17;56.60;101341.28;4993446;28;20133;-52
2022/05/15 02:55:35;;;;;;;12.85;4.25;;;;;;;17.81;57.57;101334.38;4993270;28;20041;-52
2022/05/15 02:58:02;;;;;;;18.42;3.85;;;;;;;17.55;58.56;101342.00;4992858;28;20121;-52
2022/05/15 03:00:29;;;;;;;16.55;3.85;;;;;;;17.45;58.87;101344.50;4984680;28;20031;-53
2022/05/15 03:02:55;;;;;;;16.75;3.78;;;;;;;17.29;59.05;101340.63;4980293;28;20494;-52
2022/05/15 03:05:22;;;;;;;20.50;4.20;;;;;;;16.84;60.34;101343.97;4993034;28;20038;-52
2022/05/15 03:07:49;;;;;;;12.48;3.80;;;;;;;16.92;60.04;101340.09;4992573;28;20045;-52
2022/05/15 03:10:18;;;;;;;16.17;3.95;;;;;;;16.87;59.83;101339.97;4981792;28;20113;-53
2022/05/15 03:12:44;;;;;;;14.60;3.83;;;;;;;16.61;60.76;101341.25;4973372;28;20114;-53
2022/05/15 03:15:15;;;;;;;15.38;4.15;;;;;;;16.53;60.83;101336.97;4972878;28;20043;-53
2022/05/15 03:17:43;;;;;;;15.73;4.00;;;;;;;15.96;62.45;101347.44;4983529;28;20050;-51
2022/05/15 03:20:11;;;;;;;13.23;3.90;;;;;;;16.25;61.57;101340.34;4992564;28;20057;-52
2022/05/15 03:22:37;;;;;;;20.33;4.90;;;;;;;16.12;62.14;101339.72;4992371;28;20085;-52
2022/05/15 03:25:04;;;;;;;16.88;4.43;;;;;;;15.84;63.12;101339.28;4993008;28;20041;-51
2022/05/15 03:27:30;;;;;;;11.82;3.53;;;;;;;15.94;62.53;101344.13;4992678;28;20026;-52
2022/05/15 03:29:57;;;;;;;19.30;4.88;;;;;;;15.78;62.92;101345.59;4992360;28;20053;-52
2022/05/15 03:32:23;;;;;;;19.05;4.05;;;;;;;15.86;62.65;101344.44;4992383;28;20153;-50
2022/05/15 03:34:50;;;;;;;18.63;3.88;;;;;;;15.68;62.97;101355.28;4991366;28;20034;-52
2022/05/15 03:37:16;;;;;;;18.85;3.65;;;;;;;15.58;63.14;101343.13;4992716;28;20033;-52
2022/05/15 03:39:42;;;;;;;26.00;5.50;;;;;;;15.50;63.80;101356.09;4992363;28;20019;-52
2022/05/15 03:42:09;;;;;;;14.68;4.50;;;;;;;15.38;64.31;101355.19;5003115;28;20034;-51
2022/05/15 03:44:37;;;;;;;26.40;4.53;;;;;;;15.35;64.13;101359.16;5012772;28;20065;-52
2022/05/15 03:47:05;;;;;;;16.85;4.85;;;;;;;15.21;64.47;101357.66;4994861;28;20022;-52
2022/05/15 03:49:31;;;;;;;17.83;4.20;;;;;;;15.14;64.77;101362.31;4991619;28;20038;-52
2022/05/15 03:51:57;;;;;;;19.33;4.95;;;;;;;15.03;65.10;101370.06;4979742;28;20022;-53
2022/05/15 03:54:24;;;;;;;18.52;4.22;;;;;;;15.23;64.13;101371.75;4992352;28;20109;-52
2022/05/15 03:56:50;;;;;;;15.35;4.20;;;;;;;15.10;64.74;101379.97;4992379;28;20441;-54
2022/05/15 03:59:30;;;;;;;16.73;3.72;;;;;;;14.92;65.43;101378.88;4993237;28;20030;-54
2022/05/15 04:01:57;;;;;;;24.20;4.70;;;;;;;14.94;65.47;101381.38;4981810;28;20029;-52
2022/05/15 04:04:24;;;;;;;23.20;5.00;;;;;;;14.88;65.54;101379.56;4972795;28;20077;-52
2022/05/15 04:06:50;;;;;;;18.77;4.43;;;;;;;14.81;65.44;101386.88;4976313;28;20030;-53
2022/05/15 04:09:17;;;;;;;15.00;4.28;;;;;;;14.56;66.41;101393.09;4986166;28;20034;-52
2022/05/15 04:11:43;;;;;;;20.25;4.40;;;;;;;14.46;66.88;101382.78;4989827;28;20027;-52
2022/05/15 04:14:10;;;;;;;12.77;4.43;;;;;;;14.72;65.73;101384.47;4980695;28;20026;-53
2022/05/15 04:16:36;;;;;;;17.00;4.18;;;;;;;14.51;66.26;101380.28;4994666;28;20053;-51
2022/05/15 04:19:04;;;;;;;24.13;5.40;;;;;;;14.47;66.31;101389.00;5012796;28;20030;-53
2022/05/15 04:21:36;;;;;;;19.92;4.72;;;;;;;14.43;66.39;101393.97;5012889;28;20039;-52
2022/05/15 04:24:04;;;;;;;25.08;4.68;;;;;;;14.50;66.36;101386.72;4984339;28;20047;-52
2022/05/15 04:26:31;;;;;;;22.80;4.95;;;;;;;14.43;66.57;101390.44;4979826;28;20743;-52
2022/05/15 04:28:57;;;;;;;18.38;4.90;;;;;;;14.50;66.14;101386.72;5015257;28;20380;-52
2022/05/15 04:31:23;;;;;;;19.25;4.90;;;;;;;14.60;65.82;101393.47;5012317;28;20217;-52
2022/05/15 04:33:50;;;;;;;18.83;4.47;;;;;;;14.60;65.59;101391.59;4995633;28;20503;-52
2022/05/15 04:36:16;;;;;;;14.50;4.03;;;;;;;14.60;65.72;101401.53;4995453;28;20529;-53
2022/05/15 04:38:42;;;;;;;17.77;4.15;;;;;;;14.51;66.38;101399.13;5009243;28;20510;-53
2022/05/15 04:41:08;;;;;;;18.08;4.90;;;;;;;14.44;66.56;101398.34;5012487;28;20084;-51
2022/05/15 04:43:34;;;;;;;25.13;5.57;;;;;;;14.59;65.96;101394.50;5015054;28;20501;-52
2022/05/15 04:46:03;;;;;;;14.52;4.03;;;;;;;14.48;66.13;101388.78;5012317;28;20045;-52
2022/05/15 04:48:30;;;;;;;16.55;4.32;;;;;;;14.69;65.84;101392.97;5015083;28;20037;-52
2022/05/15 04:50:56;;;;;;;21.92;5.05;;;;;;;14.62;66.20;101400.31;5011381;28;20036;-52
2022/05/15 04:53:22;;;;;;;14.57;4.00;;;;;;;14.38;66.95;101404.59;5015171;28;20111;-53
2022/05/15 04:55:49;;;;;;;18.67;4.93;;;;;;;14.21;67.30;101406.13;5011949;28;20021;-52
2022/05/15 04:58:15;;;;;;;14.45;4.25;;;;;;;14.21;67.72;101406.13;5014633;28;20018;-52
2022/05/15 05:00:43;;;;;;;17.95;4.47;;;;;;;14.42;66.74;101397.72;4992916;28;20060;-52
2022/05/15 05:03:09;;;;;;;22.20;4.55;;;;;;;14.31;67.23;101414.56;4994893;28;20069;-52
2022/05/15 05:05:35;;;;;;;19.17;4.45;;;;;;;14.41;66.76;101409.53;4994004;28;20062;-52
2022/05/15 05:08:01;;;;;;;17.75;4.32;;;;;;;14.40;66.95;101409.75;4982403;28;20467;-53
2022/05/15 05:10:28;;;;;;;13.52;4.93;;;;;;;14.48;66.37;101404.13;4990840;28;20391;-52
2022/05/15 05:12:54;;;;;;;16.60;4.75;;;;;;;14.46;66.71;101400.81;4994791;28;20041;-52
2022/05/15 05:15:20;;;;;;;15.07;4.32;;;;;;;14.47;66.61;101408.69;4999999;28;20050;-53
2022/05/15 05:17:46;;;;;;;15.95;4.57;;;;;;;14.33;67.07;101411.66;4994731;28;20061;-52
2022/05/15 05:20:13;;;;;;;15.73;4.55;;;;;;;14.24;67.51;101408.41;4993451;28;20030;-52
2022/05/15 05:22:40;;;;;;;23.67;4.55;;;;;;;14.43;66.31;101407.44;4994141;28;20028;-53
2022/05/15 05:25:07;;;;;;;15.75;4.57;;;;;;;14.07;67.92;101401.88;4994129;28;20160;-53
2022/05/15 05:27:34;;;;;;;18.23;4.35;;;;;;;14.30;67.14;101406.72;4994773;28;20065;-52
2022/05/15 05:30:00;;;;;;;19.05;4.65;;;;;;;14.17;67.45;101413.81;4993762;28;20321;-53
2022/05/15 05:32:26;;;;;;;21.95;5.22;;;;;;;14.15;67.74;101390.84;4994370;28;20064;-54
2022/05/15 05:34:53;;;;;;;15.75;4.38;;;;;;;14.23;67.69;101380.66;4992280;28;20034;-52
2022/05/15 05:37:19;;;;;;;14.45;4.80;;;;;;;14.20;67.57;101396.41;4993757;28;20118;-52
2022/05/15 05:39:45;;;;;;;20.52;4.43;;;;;;;14.25;67.56;101410.03;4986903;28;20061;-53
2022/05/15 05:42:11;;;;;;;21.42;4.88;;;;;;;14.27;66.73;101398.03;4984872;28;20084;-53
2022/05/15 05:44:38;;;;;;;14.30;4.28;;;;;;;13.88;68.98;101384.75;5002026;28;20112;-52
2022/05/15 05:47:04;;;;;;;22.52;6.22;;;;;;;13.88;69.32;101387.44;4999521;28;20437;-53
2022/05/15 05:49:31;;;;;;;29.02;6.05;;;;;;;13.75;69.86;101382.97;4994363;28;20034;-53
2022/05/15 05:51:57;;;;;;;19.98;5.00;;;;;;;13.82;69.93;101382.94;4993118;28;20113;-54
2022/05/15 05:54:23;;;;;;;19.88;5.00;;;;;;;13.92;69.31;101386.00;5011513;28;20065;-52
2022/05/15 05:56:49;;;;;;;19.60;5.10;;;;;;;14.08;68.68;101379.28;5002504;28;20030;-52
2022/05/15 05:59:16;;;;;;;19.48;4.82;;;;;;;14.04;68.79;101384.28;4994181;28;20034;-52
2022/05/15 06:01:42;;;;;;;14.68;4.95;;;;;;;13.99;69.05;101386.78;4993299;28;20427;-53
2022/05/15 06:06:53;;;;;;;13.18;3.95;;;;;;;14.17;68.32;101369.94;4991775;28;20501;-52
2022/05/15 06:09:19;;;;;;;21.85;3.92;;;;;;;13.96;68.86;101374.59;5017074;23;20061;-51
2022/05/15 06:11:45;;;;;;;17.40;4.82;;;;;;;14.03;68.56;101374.56;5019867;28;20093;-53
2022/05/15 06:14:11;;;;;;;20.73;4.70;;;;;;;14.15;68.39;101372.00;5033554;28;20374;-52
2022/05/15 06:16:38;;;;;;;17.85;4.57;;;;;;;14.33;67.69;101361.34;5031048;28;20111;-52
2022/05/15 06:19:04;;;;;;;17.27;4.50;;;;;;;14.20;67.87;101362.22;5033572;28;20026;-51
2022/05/15 06:21:31;;;;;;;21.27;4.60;;;;;;;14.13;68.41;101363.31;5032052;28;20557;-52
2022/05/15 06:23:57;;;;;;;19.08;5.00;;;;;;;14.14;68.40;101365.78;5033645;28;20108;-52
2022/05/15 06:26:23;;;;;;;17.42;4.47;;;;;;;14.09;68.32;101362.09;5031827;28;20035;-53
2022/05/15 06:28:49;;;;;;;11.73;3.60;;;;;;;14.14;68.56;101359.59;5011186;28;20399;-52
2022/05/15 06:31:15;;;;;;;19.58;4.85;;;;;;;13.87;69.48;101357.03;5022456;28;20037;-52
2022/05/15 06:33:42;;;;;;;14.98;4.55;;;;;;;13.83;69.90;101369.28;5032764;28;20053;-52
2022/05/15 06:36:08;;;;;;;17.83;4.00;;;;;;;14.05;68.82;101366.25;5030440;28;20029;-53
2022/05/15 06:38:34;;;;;;;18.98;4.10;;;;;;;13.84;69.79;101362.88;5032731;28;20040;-51
2022/05/15 06:41:00;;;;;;;20.27;5.28;;;;;;;13.79;70.06;101362.69;5031782;28;20073;-52
2022/05/15 06:43:26;;;;;;;18.63;4.07;;;;;;;14.05;69.13;101366.25;5032823;28;20462;-52
2022/05/15 06:45:53;;;;;;;19.67;4.53;;;;;;;14.11;68.71;101368.09;5031121;28;20025;-53
2022/05/15 06:48:19;;;;;;;17.10;4.55;;;;;;;13.88;69.92;101363.25;5032534;28;20100;-53
2022/05/15 06:50:49;;;;;;;17.90;4.28;;;;;;;13.87;69.78;101365.09;5030410;28;20033;-52
2022/05/15 06:53:15;;;;;;;17.15;4.45;;;;;;;13.98;69.33;101367.13;5032405;28;20068;-52
2022/05/15 06:57:28;;;;;;;15.25;4.03;;;;;;;13.94;69.33;101365.09;5030371;28;20022;-52
2022/05/15 06:58:29;;;;;;;12.10;3.92;;;;;;;14.02;68.66;101364.81;5032558;28;20026;-52
2022/05/15 07:00:55;;;;;;;16.67;3.83;;;;;;;13.98;69.03;101360.91;5029967;28;20470;-52
2022/05/15 07:03:22;;;;;;;16.85;3.78;;;;;;;14.15;68.37;101361.22;5032626;28;20095;-52
2022/05/15 07:05:50;;;;;;;14.10;3.72;;;;;;;14.18;68.47;101360.81;5031083;28;20493;-52
2022/05/15 07:08:16;;;;;;;13.98;3.53;;;;;;;14.15;68.86;101366.59;5031970;28;20067;-52
2022/05/15 07:10:43;;;;;;;17.80;4.60;;;;;;;14.08;69.07;101363.13;5030399;28;20390;-52
2022/05/15 07:13:09;;;;;;;17.85;3.88;;;;;;;13.94;69.51;101357.84;5032068;28;20032;-52
2022/05/15 07:15:37;;;;;;;14.27;4.10;;;;;;;13.94;69.70;101357.84;5030736;28;20021;-52
2022/05/15 07:18:08;;;;;;;15.70;4.55;;;;;;;13.96;69.60;101358.44;5030015;28;20030;-53
2022/05/15 07:20:35;;;;;;;9.85;4.20;;;;;;;14.15;69.21;101353.97;5031395;28;20025;-52
2022/05/15 07:23:02;;;;;;;14.68;3.60;;;;;;;13.98;70.02;101356.34;5031409;28;20087;-53
2022/05/15 07:25:28;;;;;;;19.08;4.22;;;;;;;14.09;69.23;101354.00;5032112;28;20116;-53
2022/05/15 07:27:55;;;;;;;17.40;3.92;;;;;;;14.05;69.28;101350.09;5030607;28;20027;-52
2022/05/15 07:30:21;;;;;;;12.60;3.70;;;;;;;14.07;69.12;101351.56;5031641;28;20132;-52
2022/05/15 07:32:48;;;;;;;10.65;4.07;;;;;;;14.05;69.35;101353.66;5030710;28;20034;-52
2022/05/15 07:35:14;;;;;;;19.25;4.43;;;;;;;13.99;69.79;101351.78;5031883;28;20041;-53
2022/05/15 07:37:41;;;;;;;16.15;3.78;;;;;;;14.09;69.58;101364.78;5030114;28;20033;-52
2022/05/15 07:40:07;;;;;;;11.35;4.00;;;;;;;13.89;70.18;101376.50;5031331;28;20029;-51
2022/05/15 07:42:35;;;;;;;9.93;2.80;;;;;;;13.93;69.97;101379.56;5030775;28;20456;-53
2022/05/15 07:45:01;;;;;;;18.38;4.78;;;;;;;13.97;69.63;101386.19;5031591;28;20512;-52
2022/05/15 07:47:27;;;;;;;17.15;4.47;;;;;;;14.08;69.20;101376.59;5035712;28;20063;-52
2022/05/15 07:49:54;;;;;;;16.05;3.22;;;;;;;13.86;70.53;101368.03;5038592;28;20026;-52
2022/05/15 07:52:20;;;;;;;12.57;3.80;;;;;;;13.50;72.27;101364.03;5037179;28;20363;-52
2022/05/15 07:54:46;;;;;;;16.17;3.78;;;;;;;13.70;71.36;101367.47;5038723;28;20033;-52
2022/05/15 07:57:12;;;;;;;14.10;4.20;;;;;;;13.37;72.40;101362.22;5035972;28;20389;-52
2022/05/15 07:59:38;;;;;;;12.70;4.13;;;;;;;13.36;72.54;101357.88;5037861;28;20509;-52
2022/05/15 08:02:06;;;;;;;14.70;4.32;;;;;;;13.57;71.74;101358.63;5036517;28;20040;-52
2022/05/15 08:08:00;;;;;;;14.25;3.72;;;;;;;13.32;72.74;101356.63;5038163;28;20104;-52
2022/05/15 08:10:08;;;;;;;11.83;4.13;;;;;;;13.69;70.55;101348.84;5038408;28;20108;-52
2022/05/15 08:12:35;;;;;;;16.92;3.83;;;;;;;13.60;71.10;101356.34;5036688;28;20298;-53
2022/05/15 08:15:04;;;;;;;18.83;3.90;;;;;;;13.74;70.60;101349.84;5037950;28;20038;-52
2022/05/15 08:17:30;;;;;;;13.18;3.95;;;;;;;13.74;70.49;101354.41;5036775;28;20029;-50
2022/05/15 08:25:26;;;;;;;17.55;3.40;;;;;;;13.45;72.22;101355.78;5036726;28;20056;-52
2022/05/15 08:27:52;;;;;;;11.88;3.60;;;;;;;13.64;71.41;101359.44;5031895;28;20450;-53
2022/05/15 08:30:20;;;;;;;14.43;3.67;;;;;;;13.65;71.65;101353.00;5017217;28;20121;-53
2022/05/15 08:32:47;;;;;;;18.08;4.40;;;;;;;13.58;71.85;101355.72;5017783;28;20053;-51
2022/05/15 08:35:13;;;;;;;16.88;4.38;;;;;;;13.58;71.63;101352.22;5032138;28;20068;-53
2022/05/15 08:37:42;;;;;;;15.30;4.00;;;;;;;13.54;71.97;101340.22;5037727;28;20638;-52
2022/05/15 08:40:09;;;;;;;10.35;3.85;;;;;;;13.45;72.48;101339.66;5033895;28;20088;-52
2022/05/15 08:42:50;;;;;;;15.93;4.05;;;;;;;13.55;72.27;101334.66;5037026;28;20101;-52
2022/05/15 08:45:18;;;;;;;15.30;3.92;;;;;;;13.56;71.80;101340.84;5036253;28;20022;-53
2022/05/15 08:47:46;;;;;;;14.50;3.65;;;;;;;13.37;72.50;101342.56;5018026;28;20026;-52
2022/05/15 08:50:18;;;;;;;10.20;3.83;;;;;;;13.52;71.61;101336.94;5035393;28;20033;-53
2022/05/15 08:52:54;;;;;;;10.15;3.95;;;;;;;13.38;72.66;101347.75;5038269;28;20053;-53
2022/05/15 08:55:33;;;;;;;14.35;3.83;;;;;;;13.45;72.29;101334.28;5035531;28;20033;-53
2022/05/15 08:58:03;;;;;;;11.95;3.35;;;;;;;13.48;71.72;101340.03;5035181;28;20033;-52
2022/05/15 09:00:43;;;;;;;12.10;3.67;;;;;;;13.54;71.74;101335.66;5033220;28;20029;-52
2022/05/15 09:03:21;;;;;;;9.18;3.13;;;;;;;13.50;72.36;101339.03;5033090;28;20116;-53
2022/05/15 09:06:37;;;;;;;8.23;2.85;;;;;;;13.66;71.89;101335.84;5014179;28;20037;-51
2022/05/15 09:09:09;;;;;;;12.32;3.08;;;;;;;13.53;72.51;101327.81;5016278;28;20041;-50
2022/05/15 09:12:21;;;;;;;9.65;3.40;;;;;;;13.57;72.62;101337.13;5033421;28;20026;-52
2022/05/15 09:14:58;;;;;;;7.85;2.58;;;;;;;13.43;73.16;101336.34;5009624;28;20030;-50
2022/05/15 09:17:52;;;;;;;10.75;3.88;;;;;;;13.32;73.20;101340.50;5012014;28;20032;-50
2022/05/15 09:20:33;;;;;;;7.80;2.70;;;;;;;13.43;72.55;101339.03;5023566;28;20042;-51
2022/05/15 09:23:07;;;;;;;5.25;2.03;;;;;;;13.33;73.10;101342.19;5026952;28;20465;-52
2022/05/15 09:25:35;;;;;;;8.00;2.50;;;;;;;13.39;72.83;101341.34;5033893;28;20018;-52
2022/05/15 09:28:08;;;;;;;9.25;2.28;;;;;;;13.16;73.89;101330.22;5032400;28;20673;-50
2022/05/15 09:30:46;;;;;;;7.00;2.63;;;;;;;13.33;73.03;101326.06;5033679;28;20434;-52
2022/05/15 09:33:30;;;;;;;7.63;2.50;;;;;;;13.38;72.38;101323.56;5031658;28;20033;-51
2022/05/15 09:36:28;;;;;;;10.80;2.75;;;;;;;13.37;72.62;101324.56;5033764;28;20028;-52
2022/05/15 09:39:19;;;;;;;9.00;2.63;;;;;;;13.13;73.15;101322.56;5018322;28;20041;-49
2022/05/15 09:44:42;;;;;;;7.18;2.88;;;;;;;13.01;73.75;101326.94;5028341;28;20036;-52
2022/05/15 09:47:21;;;;;;;6.85;2.72;;;;;;;13.17;73.21;101323.78;5033437;28;20037;-51
2022/05/15 09:49:48;;;;;;;11.23;2.28;;;;;;;13.23;73.07;101324.84;5031480;28;20033;-52
2022/05/15 09:52:42;;;;;;;6.53;2.40;;;;;;;13.17;72.89;101321.09;5033308;28;20026;-50
2022/05/15 09:55:29;;;;;;;7.20;2.08;;;;;;;13.22;72.61;101323.19;5031145;28;20037;-51
2022/05/15 09:58:14;;;;;;;6.82;1.85;;;;;;;13.19;72.89;101322.53;5033499;28;20477;-51
2022/05/15 10:00:40;;;;;;;5.60;2.13;;;;;;;13.15;73.30;101321.28;5013224;28;20566;-52
2022/05/15 10:03:24;;;;;;;5.25;1.90;;;;;;;13.04;73.56;101318.44;5012492;28;20038;-50
2022/05/15 10:06:01;;;;;;;8.10;2.55;;;;;;;12.99;73.59;101326.28;5019490;28;20481;-51
2022/05/15 10:08:28;;;;;;;6.68;2.47;;;;;;;13.07;74.00;101320.72;5030714;28;20150;-51
2022/05/15 10:11:01;;;;;;;6.13;2.47;;;;;;;12.98;74.40;101322.78;5031478;28;20033;-51
2022/05/15 10:13:36;;;;;;;4.82;2.00;;;;;;;12.83;74.92;101324.91;5031285;28;20033;-51
2022/05/15 10:16:15;;;;;;;7.55;1.98;;;;;;;12.91;74.45;101325.50;5033208;28;20061;-50
2022/05/15 10:19:08;;;;;;;9.18;2.35;;;;;;;12.76;75.09;101316.81;5029805;28;20092;-50
2022/05/15 10:21:45;;;;;;;3.90;1.80;;;;;;;12.58;75.88;101316.66;5032413;28;20029;-51
2022/05/15 10:24:23;;;;;;;5.70;1.85;;;;;;;12.55;75.99;101303.66;5025344;28;20037;-51
2022/05/15 10:27:05;;;;;;;5.05;1.67;;;;;;;12.60;75.46;101301.16;5033244;28;20036;-51
2022/05/15 10:30:02;;;;;;;4.75;1.70;;;;;;;12.53;75.70;101290.41;5027683;28;20049;-52
2022/05/15 10:32:49;;;;;;;7.40;1.98;;;;;;;12.56;76.06;101305.31;5032698;28;20505;-51
2022/05/15 10:35:24;;;;;;;4.05;1.75;;;;;;;12.51;75.84;101294.34;5012879;28;20030;-51
2022/05/15 10:37:53;;;;;;;3.72;1.48;;;;;;;12.58;75.69;101289.78;5012112;28;20025;-51
2022/05/15 10:40:19;;;;;;;3.92;1.80;;;;;;;12.59;75.46;101289.56;5012270;28;20498;-50
2022/05/15 10:43:09;;;;;;;3.72;1.55;;;;;;;12.61;75.49;101286.72;5018308;28;20475;-50
2022/05/15 10:45:50;;;;;;;5.18;1.80;;;;;;;12.65;75.12;101290.59;5012795;28;20096;-49
2022/05/15 10:48:58;;;;;;;7.38;1.95;;;;;;;12.58;75.07;101282.56;5015591;28;20044;-50
2022/05/15 10:51:37;;;;;;;6.30;2.10;;;;;;;12.45;75.75;101279.06;5017408;28;20025;-49
2022/05/15 10:57:42;;;;;;;4.03;1.63;;;;;;;12.58;75.02;101279.88;5029052;28;20045;-51
2022/05/15 11:00:26;;;;;;;3.55;1.27;;;;;;;12.54;75.26;101275.13;5001299;28;20057;-51
2022/05/15 11:03:23;;;;;;;4.75;1.40;;;;;;;12.42;75.66;101269.56;5013505;28;20080;-52
2022/05/15 11:05:54;;;;;;;;;;;;;;;12.38;76.04;101271.00;5032577;28;20037;-52
2022/05/15 11:08:44;;;;;;;4.35;1.52;;;;;;;12.40;75.69;101279.69;5031081;28;20012;-51
2022/05/15 11:11:40;;;;;;;3.08;1.40;;;;;;;12.48;75.52;101273.28;5031795;28;20440;-50
2022/05/15 11:14:35;;;;;;;3.78;1.40;;;;;;;12.48;75.35;101266.03;5031763;28;20065;-52
2022/05/15 11:17:34;;;;;;;2.23;1.10;;;;;;;12.56;75.17;101257.78;5014427;28;20037;-51
2022/05/15 11:20:15;;;;;;;3.15;1.20;;;;;;;12.46;75.85;101265.44;5030861;28;20033;-52
2022/05/15 11:22:48;;;;;;;3.47;1.63;;;;;;;12.59;75.31;101270.78;5024839;28;20041;-52
2022/05/15 11:25:28;;;;;;;12.77;2.00;;;;;;;12.56;75.42;101270.38;5023147;28;20052;-52
2022/05/15 11:28:19;;;;;;;6.78;2.00;;;;;;;12.63;75.61;101258.59;5012022;28;20026;-50
2022/05/15 11:30:58;;;;;;;9.38;2.08;;;;;;;12.62;75.78;101266.88;5014130;28;20046;-49
2022/05/15 11:33:53;;;;;;;5.88;1.67;;;;;;;12.63;76.10;101257.78;5011902;28;20032;-49
2022/05/15 11:36:22;;;;;;;5.45;1.90;;;;;;;12.68;76.05;101264.16;5008673;28;20034;-49
2022/05/15 11:38:54;;;;;;;10.02;2.75;;;;;;;12.64;76.44;101256.72;5029008;28;20029;-49
2022/05/15 11:41:38;;;;;;;6.95;2.05;;;;;;;12.66;76.50;101255.50;5031446;28;20493;-52
2022/05/15 11:44:08;;;;;;;5.47;2.75;;;;;;;12.67;76.69;101249.09;5011791;28;20385;-51
2022/05/15 11:46:47;;;;;;;6.75;2.00;;;;;;;12.47;77.86;101247.47;5013991;28;20108;-49
2022/05/15 11:49:33;;;;;;;6.15;2.42;;;;;;;12.57;76.96;101246.00;5019420;28;20033;-50
2022/05/15 11:52:14;;;;;;;3.58;2.13;;;;;;;12.65;76.92;101248.47;5023407;28;20026;-52
2022/05/15 11:54:49;;;;;;;8.88;2.22;;;;;;;12.82;76.20;101248.84;5026219;28;20450;-51
2022/05/15 11:57:34;;;;;;;;;;;;;;;12.77;76.53;101256.72;5031697;28;20029;-51